ADDS TAF Board INFO
 
 

IDs: Format: Expanded Condensed

KPHX - Phoenix/Sky Harbor, AZ, US

Issued at 1721 UTC 23 Aug 2014
Time1851Z23/20Z23/21Z23/22Z23/23Z24/00Z24/01Z24/02Z24/03Z24/04Z24/05Z24/06Z24/07Z24/08Z
TypeOBSPRVLPRVLPRVLPRVLPRVLPRVLPRVLPRVLPRVLPRVLPRVLPRVLPRVL
Vis10>6>6>6>6>6>6>6>6>6>6>6>6>6
Cig----------------------------
CoverSCTSCTFEWFEWFEWFEWFEWFEWFEWFEWFEWFEWFEWFEW
FltCat--VFRVFRVFRVFRVFRVFRVFRVFRVFRVFRVFRVFRVFR
Wx----------------------------
WDir50VRB240240240240240240240240240240VRBVRB
WSpd45777777777755
WGst----------------------------
R07/25
XWnd3VRB-3-3-3-3-3-3-3-3-3-3VRBVRB
HWnd3VRB-6-6-6-6-6-6-6-6-6-6VRBVRB
R08/26
XWnd3VRB-3-3-3-3-3-3-3-3-3-3VRBVRB
HWnd3VRB-6-6-6-6-6-6-6-6-6-6VRBVRB
Raw TAF
KPHX 231721Z 2318/2418 VRB05KT P6SM SCT200
  FM232100 24007KT P6SM FEW090 FEW250
  FM240700 VRB05KT P6SM FEW250
  FM240900 09005KT P6SM FEW250


Raw METAR
KPHX 231851Z 05004KT 10SM SCT130 SCT200 33/12 A2990 RMK AO2 SLP104 T03330117

TAF Board Legend

Hazard Green Yellow Red Magenta
Visibility (sm) >5 >2.99 >0.99 <=0.99
Ceiling (100 ft) >30 >9.99 >4.99 <=4.99
Wind Speed (kt) <10 <20 <30 >=30
Wind Gust (kt) <10 <20 <30 >=30
Weather No Wx Reported Light precipitation Moderate precipitation Heavy precipitation
Flight Category VFR MVFR IFR LIFR

Page loaded:  19:47 UTC  |   12:47 PM Pacific  |   01:47 PM Mountain  |   02:47 PM Central  |   03:47 PM Eastern

 

ADVISORIES

FORECASTS

FORECASTS

OBSERVATIONS

USER TOOLS

ABOUT US